Time;durP1;ratioP1;P1;durP2;ratioP2;P2;SDS_P1;SDS_P2;PMS_P1;PMS_P2;Temp;Humidity;BMP_temperature;BMP_pressure;BME280_temperature;BME280_humidity;BME280_pressure;Samples;Min_cycle;Max_cycle;Signal;HPM_P1;HPM_P2
2023/08/16 00:00:10;;;;;;;1.10;1.00;;;;;;;23.44;72.77;99812.63;5092047;28;20040;-63
2023/08/16 00:02:39;;;;;;;1.95;1.25;;;;;;;23.43;72.58;99826.56;5093641;28;20123;-63
2023/08/16 00:05:08;;;;;;;1.27;0.82;;;;;;;23.45;72.45;99824.72;5093467;28;20052;-62
2023/08/16 00:07:37;;;;;;;17.85;2.17;;;;;;;23.43;72.47;99821.34;5093196;28;20044;-62
2023/08/16 00:10:12;;;;;;;1.35;1.25;;;;;;;23.42;72.68;99813.63;5093409;28;20486;-62
2023/08/16 00:12:41;;;;;;;1.05;0.80;;;;;;;23.40;72.28;99818.91;5093291;28;20119;-63
2023/08/16 00:15:11;;;;;;;0.93;0.60;;;;;;;23.37;72.47;99813.84;5093453;28;20044;-63
2023/08/16 00:17:40;;;;;;;2.83;1.63;;;;;;;23.39;72.37;99813.78;5093863;28;20281;-63
2023/08/16 00:20:10;;;;;;;1.15;1.00;;;;;;;23.37;72.32;99811.22;5093158;28;20094;-63
2023/08/16 00:22:39;;;;;;;0.90;0.90;;;;;;;23.36;72.38;99814.78;5093149;28;20040;-63
2023/08/16 00:25:09;;;;;;;3.17;1.80;;;;;;;23.31;72.44;99817.59;5096880;28;20036;-63
2023/08/16 00:27:41;;;;;;;3.40;0.70;;;;;;;23.28;72.57;99816.88;5096792;28;20117;-63
2023/08/16 00:30:13;;;;;;;1.13;1.02;;;;;;;23.19;72.67;99823.41;5096699;28;20044;-63
2023/08/16 00:32:44;;;;;;;0.63;0.63;;;;;;;23.15;72.85;99815.81;5097110;28;20044;-63
2023/08/16 00:35:15;;;;;;;2.25;1.10;;;;;;;23.08;73.17;99814.44;5096902;28;20056;-63
2023/08/16 00:37:44;;;;;;;1.05;0.95;;;;;;;23.03;73.33;99817.28;5096511;28;20040;-63
2023/08/16 00:40:13;;;;;;;1.30;0.82;;;;;;;22.98;73.47;99818.41;5097062;28;20390;-63
2023/08/16 00:42:43;;;;;;;1.95;1.33;;;;;;;22.95;73.60;99808.16;5096452;28;20079;-62
2023/08/16 00:45:13;;;;;;;0.98;0.90;;;;;;;22.90;73.86;99815.34;5096468;28;20127;-62
2023/08/16 00:47:42;;;;;;;2.25;1.15;;;;;;;22.89;73.87;99808.47;5112096;28;20058;-63
2023/08/16 00:50:13;;;;;;;1.77;1.33;;;;;;;22.85;74.12;99806.91;5095173;28;20494;-63
2023/08/16 00:52:43;;;;;;;0.90;0.90;;;;;;;22.85;73.98;99807.75;5096534;28;20098;-63
2023/08/16 00:55:13;;;;;;;0.75;0.68;;;;;;;22.86;74.11;99800.78;5094998;28;20122;-63
2023/08/16 00:57:44;;;;;;;1.85;1.15;;;;;;;22.84;74.25;99797.44;5112441;28;20063;-62
2023/08/16 01:00:14;;;;;;;1.05;0.95;;;;;;;22.82;74.44;99796.66;5096216;28;20048;-63
2023/08/16 01:02:43;;;;;;;3.83;1.38;;;;;;;22.82;74.28;99792.28;5096678;28;20044;-63
2023/08/16 01:05:12;;;;;;;1.50;1.38;;;;;;;22.82;74.25;99791.47;5096078;28;20056;-63
2023/08/16 01:07:41;;;;;;;0.80;0.77;;;;;;;22.85;74.33;99793.88;5094959;28;20119;-63
2023/08/16 01:10:10;;;;;;;0.50;0.50;;;;;;;22.85;74.19;99796.50;5096277;28;20410;-63
2023/08/16 01:12:48;;;;;;;0.82;0.60;;;;;;;22.83;74.37;99796.56;5095944;28;20056;-63
2023/08/16 01:15:23;;;;;;;0.65;0.65;;;;;;;22.84;74.22;99800.03;5096181;28;20060;-62
2023/08/16 01:17:54;;;;;;;1.05;0.95;;;;;;;22.85;74.36;99799.94;5095954;28;20036;-62
2023/08/16 01:20:23;;;;;;;1.40;0.93;;;;;;;22.80;74.42;99799.31;5095838;28;20131;-63
2023/08/16 01:22:57;;;;;;;;;;;;;;;22.73;74.73;99812.69;5096215;28;20036;-62
2023/08/16 01:25:36;;;;;;;1.88;1.02;;;;;;;22.63;75.14;99802.75;5111536;28;19920;-63
2023/08/16 01:28:08;;;;;;;1.10;0.70;;;;;;;22.56;75.45;99801.31;5095622;28;20044;-63
2023/08/16 01:30:40;;;;;;;8.15;1.88;;;;;;;22.54;75.57;99795.34;5095634;28;20052;-63
2023/08/16 01:33:09;;;;;;;0.98;0.85;;;;;;;22.48;75.71;99806.03;5094373;28;20379;-62
2023/08/16 01:35:40;;;;;;;1.13;1.02;;;;;;;22.33;75.81;99811.13;5094367;28;20044;-62
2023/08/16 01:38:12;;;;;;;1.83;1.33;;;;;;;22.24;76.42;99804.59;5095787;28;20558;-63
2023/08/16 01:40:51;;;;;;;0.82;0.82;;;;;;;22.08;76.45;99820.94;5095661;28;20058;-62
2023/08/16 01:43:22;;;;;;;2.00;0.90;;;;;;;22.03;77.10;99813.34;5095384;28;20079;-62
2023/08/16 01:45:54;;;;;;;0.73;0.70;;;;;;;21.96;77.35;99822.34;5095234;28;20079;-63
2023/08/16 01:48:24;;;;;;;1.80;1.40;;;;;;;22.02;77.32;99814.28;5095131;28;20051;-63
2023/08/16 01:50:54;;;;;;;0.80;0.73;;;;;;;22.08;77.08;99818.34;5095511;28;20142;-62
2023/08/16 01:53:24;;;;;;;2.25;1.85;;;;;;;21.95;77.43;99812.88;5093991;28;20048;-62
2023/08/16 01:55:52;;;;;;;0.95;0.85;;;;;;;21.88;77.74;99814.06;5093964;28;20126;-62
2023/08/16 01:58:23;;;;;;;3.22;1.25;;;;;;;21.85;77.75;99812.44;5093725;28;20119;-63
2023/08/16 02:00:52;;;;;;;1.48;1.38;;;;;;;21.86;77.76;99813.25;5093854;28;20048;-63
2023/08/16 02:03:21;;;;;;;1.10;1.00;;;;;;;21.82;78.08;99824.69;5093716;28;20039;-63
2023/08/16 02:05:50;;;;;;;2.13;1.60;;;;;;;21.77;78.36;99814.50;5093963;28;20440;-63
2023/08/16 02:08:19;;;;;;;0.93;0.90;;;;;;;21.77;78.37;99813.66;5093586;28;20040;-61
2023/08/16 02:10:48;;;;;;;3.28;1.67;;;;;;;21.77;78.47;99813.66;5094838;28;20051;-63
2023/08/16 02:13:17;;;;;;;1.20;1.10;;;;;;;21.74;78.46;99819.00;5094668;28;20414;-63
2023/08/16 02:15:48;;;;;;;3.08;1.27;;;;;;;21.69;78.42;99811.38;5093827;28;20413;-63
2023/08/16 02:18:18;;;;;;;1.55;1.23;;;;;;;21.60;78.77;99810.94;5094816;28;20044;-63
2023/08/16 02:20:53;;;;;;;1.85;1.25;;;;;;;21.61;78.88;99812.66;5093406;28;20197;-63
2023/08/16 02:23:23;;;;;;;1.45;1.02;;;;;;;21.60;78.82;99811.78;5094873;28;20101;-62
2023/08/16 02:25:52;;;;;;;1.73;1.10;;;;;;;21.55;78.73;99810.28;5094451;28;20040;-63
2023/08/16 02:28:21;;;;;;;1.15;1.05;;;;;;;21.50;78.67;99807.91;5094437;28;20135;-62
2023/08/16 02:30:51;;;;;;;1.33;0.98;;;;;;;21.51;79.12;99816.53;5094781;28;20428;-63
2023/08/16 02:33:20;;;;;;;1.10;1.00;;;;;;;21.51;79.08;99811.34;5094674;28;20071;-63
2023/08/16 02:35:49;;;;;;;1.75;1.27;;;;;;;21.52;79.24;99818.25;5094370;28;20106;-63
2023/08/16 02:38:18;;;;;;;1.15;1.05;;;;;;;21.57;79.28;99811.09;5093555;28;20062;-62
2023/08/16 02:40:47;;;;;;;1.42;1.10;;;;;;;21.62;79.30;99814.34;5094470;28;20555;-63
2023/08/16 02:43:16;;;;;;;1.15;0.80;;;;;;;21.65;79.25;99819.38;5094799;28;20461;-62
2023/08/16 02:45:45;;;;;;;1.40;1.30;;;;;;;21.68;79.06;99824.44;5094266;28;20041;-63
2023/08/16 02:48:16;;;;;;;1.73;1.45;;;;;;;21.73;78.87;99817.31;5094062;28;20130;-63
2023/08/16 02:50:45;;;;;;;1.95;1.38;;;;;;;21.74;78.63;99811.22;5094335;28;20405;-63
2023/08/16 02:53:16;;;;;;;1.05;0.95;;;;;;;21.73;78.44;99815.56;5094088;28;20040;-63
2023/08/16 02:55:46;;;;;;;2.60;1.65;;;;;;;21.71;78.40;99814.78;5094451;28;20066;-63
2023/08/16 02:58:14;;;;;;;3.75;1.20;;;;;;;21.69;78.23;99823.56;5093885;28;20044;-63
2023/08/16 03:00:43;;;;;;;2.22;1.17;;;;;;;21.68;78.22;99819.25;5094333;28;20115;-63
2023/08/16 03:03:12;;;;;;;1.17;1.08;;;;;;;21.65;78.24;99819.38;5094201;28;20036;-62
2023/08/16 03:05:43;;;;;;;1.02;0.80;;;;;;;21.58;78.38;99823.16;5094147;28;20051;-62
2023/08/16 03:08:12;;;;;;;1.13;1.02;;;;;;;21.53;78.85;99819.91;5094155;28;20059;-62
2023/08/16 03:10:40;;;;;;;2.00;1.30;;;;;;;21.55;78.51;99821.53;5076004;28;20139;-63
2023/08/16 03:13:09;;;;;;;1.13;0.80;;;;;;;21.48;78.63;99821.84;5093710;28;20281;-63
2023/08/16 03:15:38;;;;;;;1.05;0.90;;;;;;;21.43;78.99;99821.25;5092450;28;20044;-62
2023/08/16 03:18:07;;;;;;;0.50;0.50;;;;;;;21.46;79.10;99819.34;5093990;28;20542;-62
2023/08/16 03:20:36;;;;;;;2.88;1.30;;;;;;;21.50;78.94;99814.88;5093639;28;20110;-63
2023/08/16 03:23:07;;;;;;;;;;;;;;;21.49;78.66;99819.22;5094402;28;20401;-62
2023/08/16 03:25:36;;;;;;;2.05;1.30;;;;;;;21.45;78.93;99822.84;5092776;28;19959;-63
2023/08/16 03:28:05;;;;;;;1.13;1.00;;;;;;;21.46;78.75;99831.47;5093623;28;20108;-62
2023/08/16 03:30:34;;;;;;;;;;;;;;;21.38;78.88;99832.66;5094280;28;20068;-62
2023/08/16 03:33:05;;;;;;;1.48;1.38;;;;;;;21.30;79.24;99837.34;5075783;28;19924;-63
2023/08/16 03:35:35;;;;;;;1.20;1.02;;;;;;;21.28;79.47;99840.91;5093877;28;20048;-62
2023/08/16 03:38:04;;;;;;;1.13;1.00;;;;;;;21.31;79.21;99845.94;5093476;28;20047;-62
2023/08/16 03:40:34;;;;;;;0.68;0.68;;;;;;;21.36;79.13;99839.66;5093435;28;20044;-62
2023/08/16 03:43:05;;;;;;;0.65;0.65;;;;;;;21.40;78.97;99847.34;5093445;28;20069;-63
2023/08/16 03:45:33;;;;;;;1.33;1.20;;;;;;;21.38;78.97;99848.22;5094037;28;20161;-62
2023/08/16 03:48:02;;;;;;;1.15;1.02;;;;;;;21.40;78.83;99845.59;5092048;28;20119;-62
2023/08/16 03:50:32;;;;;;;1.95;1.70;;;;;;;21.42;78.89;99842.91;5093670;28;20044;-62
2023/08/16 03:53:01;;;;;;;1.80;1.45;;;;;;;21.43;78.81;99839.41;5075287;28;20494;-62
2023/08/16 03:55:30;;;;;;;;;;;;;;;21.43;78.72;99839.41;5094046;28;20589;-62
2023/08/16 03:58:00;;;;;;;1.07;0.97;;;;;;;21.35;78.79;99843.16;5093596;28;19920;-63
2023/08/16 04:00:30;;;;;;;2.40;1.80;;;;;;;21.33;78.68;99841.56;5097665;28;20032;-63
2023/08/16 04:02:58;;;;;;;;;;;;;;;21.35;78.71;99843.16;5096522;28;20070;-62
2023/08/16 04:05:29;;;;;;;6.28;2.70;;;;;;;21.35;78.97;99842.34;5097470;28;20409;-62
2023/08/16 04:07:58;;;;;;;;;;;;;;;21.35;79.06;99842.34;5079762;28;20139;-62
2023/08/16 04:10:26;;;;;;;1.10;1.02;;;;;;;21.31;78.73;99852.00;5096141;28;19920;-63
2023/08/16 04:12:55;;;;;;;2.10;1.55;;;;;;;21.26;79.00;99843.53;5097061;28;20040;-62
2023/08/16 04:15:26;;;;;;;0.82;0.70;;;;;;;21.28;79.09;99852.13;5096965;28;20043;-63
2023/08/16 04:17:55;;;;;;;2.63;0.70;;;;;;;21.29;79.04;99851.22;5095891;28;20089;-63
2023/08/16 04:20:25;;;;;;;1.48;1.38;;;;;;;21.32;79.03;99856.28;5097070;28;20047;-62
2023/08/16 04:22:54;;;;;;;1.58;1.20;;;;;;;21.34;79.01;99854.47;5097124;28;20052;-62
2023/08/16 04:25:23;;;;;;;1.80;1.00;;;;;;;21.40;78.91;99853.38;5097102;28;20448;-63
2023/08/16 04:27:53;;;;;;;1.40;1.10;;;;;;;21.49;78.81;99854.72;5095908;28;20113;-61
2023/08/16 04:30:23;;;;;;;1.95;0.70;;;;;;;21.53;78.79;99856.28;5097035;28;20048;-62
2023/08/16 04:32:53;;;;;;;0.80;0.80;;;;;;;21.60;78.70;99855.09;5095377;28;20047;-63
2023/08/16 04:35:24;;;;;;;3.03;1.83;;;;;;;21.64;78.39;99854.94;5096665;28;20570;-62
2023/08/16 04:37:53;;;;;;;0.95;0.90;;;;;;;21.67;78.28;99854.78;5095716;28;20398;-62
2023/08/16 04:40:23;;;;;;;2.08;1.05;;;;;;;21.76;78.19;99863.94;5095266;28;20067;-63
2023/08/16 04:42:52;;;;;;;2.83;1.48;;;;;;;21.83;78.27;99860.19;5096724;28;20044;-63
2023/08/16 04:45:22;;;;;;;0.98;0.80;;;;;;;21.87;78.52;99867.81;5095578;28;20071;-62
2023/08/16 04:47:51;;;;;;;1.35;1.17;;;;;;;21.92;78.62;99865.84;5096169;28;20079;-63
2023/08/16 04:50:21;;;;;;;1.20;1.10;;;;;;;22.01;78.85;99869.78;5095157;28;20073;-63
2023/08/16 04:52:50;;;;;;;1.15;0.90;;;;;;;22.10;78.46;99869.38;5096291;28;20109;-63
2023/08/16 04:55:23;;;;;;;1.75;1.27;;;;;;;22.19;78.29;99868.97;5096209;28;20054;-62
2023/08/16 04:57:52;;;;;;;11.05;2.17;;;;;;;22.27;77.97;99869.47;5096186;28;20047;-63
2023/08/16 05:00:23;;;;;;;1.45;1.33;;;;;;;22.34;77.64;99867.44;5096065;28;20071;-63
2023/08/16 05:02:55;;;;;;;1.80;1.65;;;;;;;22.44;77.42;99863.47;5095006;28;20489;-63
2023/08/16 05:05:27;;;;;;;1.45;1.05;;;;;;;22.48;77.21;99871.06;5096029;28;20071;-63
2023/08/16 05:07:56;;;;;;;4.57;2.35;;;;;;;22.53;77.08;99863.91;5095476;28;20040;-63
2023/08/16 05:10:25;;;;;;;3.33;1.45;;;;;;;22.59;76.71;99867.97;5094987;28;20052;-63
2023/08/16 05:12:54;;;;;;;0.70;0.70;;;;;;;22.66;76.47;99859.84;5096201;28;20378;-63
2023/08/16 05:15:23;;;;;;;3.22;1.40;;;;;;;22.78;76.24;99852.38;5095882;28;20439;-63
2023/08/16 05:17:52;;;;;;;1.55;1.45;;;;;;;22.87;75.97;99855.38;5096053;28;20040;-63
2023/08/16 05:20:21;;;;;;;3.85;1.38;;;;;;;22.97;75.64;99868.78;5094514;28;20127;-62
2023/08/16 05:22:52;;;;;;;1.00;1.00;;;;;;;22.99;74.88;99862.59;5095739;28;20040;-62
2023/08/16 05:25:21;;;;;;;0.82;0.82;;;;;;;23.01;74.72;99865.16;5095655;28;20044;-63
2023/08/16 05:27:49;;;;;;;1.13;0.98;;;;;;;23.06;74.33;99863.16;5095671;28;20125;-63
2023/08/16 05:30:18;;;;;;;2.20;1.10;;;;;;;23.09;74.23;99863.00;5095576;28;20044;-63
2023/08/16 05:32:47;;;;;;;2.20;1.45;;;;;;;23.12;73.99;99853.28;5095818;28;20111;-63
2023/08/16 05:35:16;;;;;;;4.57;0.75;;;;;;;23.25;73.82;99850.91;5095391;28;20113;-63
2023/08/16 05:37:45;;;;;;;2.15;1.40;;;;;;;23.38;73.48;99854.63;5095414;28;20127;-64
2023/08/16 05:40:16;;;;;;;1.85;0.90;;;;;;;23.45;73.24;99855.13;5095275;28;20047;-63
2023/08/16 05:42:45;;;;;;;3.88;2.50;;;;;;;23.45;72.97;99852.53;5095373;28;20494;-63
2023/08/16 05:45:14;;;;;;;5.13;1.10;;;;;;;23.39;72.68;99851.09;5094360;28;20043;-64
2023/08/16 05:47:43;;;;;;;;;;;;;;;23.33;72.74;99851.38;5095419;28;20077;-63
2023/08/16 05:50:12;;;;;;;0.80;0.80;;;;;;;23.30;72.83;99854.13;5095533;28;19920;-62
2023/08/16 05:52:41;;;;;;;1.27;1.00;;;;;;;23.35;72.64;99854.75;5095170;28;20066;-63
2023/08/16 05:55:10;;;;;;;2.05;1.38;;;;;;;23.35;72.63;99849.53;5095340;28;20055;-63
2023/08/16 05:57:40;;;;;;;2.70;1.95;;;;;;;23.36;72.71;99851.25;5094841;28;20068;-63
2023/08/16 06:00:11;;;;;;;1.02;0.98;;;;;;;23.48;72.60;99850.63;5092012;28;20047;-63
2023/08/16 06:02:40;;;;;;;1.58;1.13;;;;;;;23.63;72.31;99855.06;5094004;28;20040;-62
2023/08/16 06:05:10;;;;;;;1.52;1.05;;;;;;;23.81;72.08;99856.72;5094841;28;20079;-62
2023/08/16 06:07:39;;;;;;;1.15;1.05;;;;;;;23.94;71.67;99860.38;5095076;28;20521;-63
2023/08/16 06:10:08;;;;;;;1.48;1.17;;;;;;;23.94;71.52;99849.94;5093970;28;20127;-63
2023/08/16 06:12:37;;;;;;;1.27;1.17;;;;;;;24.06;71.40;99848.47;5092461;28;20406;-63
2023/08/16 06:15:11;;;;;;;0.85;0.77;;;;;;;24.15;70.66;99852.38;5094242;28;20482;-63
2023/08/16 06:17:41;;;;;;;1.42;1.13;;;;;;;24.24;70.57;99852.72;5094889;28;20460;-63
2023/08/16 06:20:11;;;;;;;3.65;2.30;;;;;;;24.34;70.12;99847.84;5092743;28;20048;-63
2023/08/16 06:22:39;;;;;;;1.90;1.05;;;;;;;24.46;69.71;99847.16;5093292;28;20051;-64
2023/08/16 06:25:09;;;;;;;1.45;1.13;;;;;;;24.56;69.51;99850.97;5094395;28;20036;-63
2023/08/16 06:27:39;;;;;;;0.93;0.90;;;;;;;24.64;69.07;99852.22;5094728;28;20059;-63
2023/08/16 06:30:11;;;;;;;0.80;0.80;;;;;;;24.72;68.67;99854.41;5093912;28;20055;-63
2023/08/16 06:32:40;;;;;;;1.73;1.20;;;;;;;24.67;68.20;99855.59;5094592;28;20093;-63
2023/08/16 06:35:09;;;;;;;1.30;1.17;;;;;;;24.65;68.19;99842.63;5094325;28;20109;-63
2023/08/16 06:37:39;;;;;;;2.17;1.10;;;;;;;24.63;68.38;99847.09;5093216;28;20049;-62
2023/08/16 06:40:09;;;;;;;2.00;1.42;;;;;;;24.69;68.70;99833.69;5094166;28;20039;-62
2023/08/16 06:42:39;;;;;;;1.85;1.10;;;;;;;24.73;68.39;99843.03;5094844;28;20482;-63
2023/08/16 06:45:10;;;;;;;1.48;1.25;;;;;;;24.82;68.45;99837.31;5093222;28;20113;-63
2023/08/16 06:47:39;;;;;;;1.75;1.25;;;;;;;24.96;68.19;99844.38;5096061;28;20050;-63
2023/08/16 06:50:09;;;;;;;1.15;0.88;;;;;;;25.07;67.68;99842.84;5093989;28;20028;-63
2023/08/16 06:52:38;;;;;;;1.15;1.00;;;;;;;25.17;67.33;99833.53;5093420;28;20044;-63
2023/08/16 06:55:08;;;;;;;10.07;1.75;;;;;;;25.22;67.29;99828.03;5093961;28;20032;-63
2023/08/16 06:57:38;;;;;;;1.38;1.27;;;;;;;25.27;66.87;99837.28;5094303;28;20048;-63
2023/08/16 07:00:08;;;;;;;3.40;0.95;;;;;;;25.31;67.06;99838.78;5091519;28;20039;-64
2023/08/16 07:02:39;;;;;;;2.25;1.40;;;;;;;25.36;67.42;99835.94;5088168;28;20497;-63
2023/08/16 07:05:10;;;;;;;2.80;2.13;;;;;;;25.42;67.35;99842.56;5107019;28;20051;-63
2023/08/16 07:07:39;;;;;;;1.45;1.35;;;;;;;25.53;66.89;99842.81;5105198;28;20047;-64
2023/08/16 07:10:09;;;;;;;1.45;1.33;;;;;;;25.70;67.07;99840.00;5090439;28;20080;-63
2023/08/16 07:12:38;;;;;;;0.68;0.68;;;;;;;25.79;66.64;99842.09;5092700;28;20047;-63
2023/08/16 07:15:08;;;;;;;0.80;0.80;;;;;;;25.78;66.04;99843.00;5091744;28;20124;-63
2023/08/16 07:17:38;;;;;;;1.27;1.00;;;;;;;25.87;66.11;99842.44;5093983;28;20516;-63
2023/08/16 07:20:08;;;;;;;1.23;1.13;;;;;;;26.09;65.70;99837.59;5093622;28;20402;-69
2023/08/16 07:22:38;;;;;;;1.15;1.00;;;;;;;26.26;64.91;99834.81;5093119;28;20134;-63
2023/08/16 07:25:09;;;;;;;2.05;1.50;;;;;;;26.43;63.67;99836.34;5093676;28;20044;-63
2023/08/16 07:27:39;;;;;;;0.77;0.70;;;;;;;26.56;63.42;99838.09;5093021;28;20076;-63
2023/08/16 07:30:08;;;;;;;0.90;0.82;;;;;;;26.56;63.37;99838.09;5093861;28;20486;-63
2023/08/16 07:32:39;;;;;;;2.25;0.70;;;;;;;26.68;63.54;99840.88;5092468;28;20044;-63
2023/08/16 07:35:09;;;;;;;0.68;0.63;;;;;;;26.80;63.06;99834.88;5097676;28;20044;-63
2023/08/16 07:37:38;;;;;;;2.25;1.73;;;;;;;26.98;62.59;99844.16;5097710;28;20502;-63
2023/08/16 07:40:08;;;;;;;2.50;0.88;;;;;;;27.21;62.31;99840.88;5097940;28;20448;-63
2023/08/16 07:42:37;;;;;;;1.63;1.40;;;;;;;27.35;61.57;99837.31;5096386;28;20055;-63
2023/08/16 07:45:07;;;;;;;1.75;0.95;;;;;;;27.47;61.47;99837.38;5096986;28;20440;-63
2023/08/16 07:47:36;;;;;;;1.33;1.00;;;;;;;27.54;61.29;99843.88;5097433;28;20052;-64
2023/08/16 07:50:07;;;;;;;2.97;1.05;;;;;;;27.71;60.54;99848.00;5097384;28;20509;-63
2023/08/16 07:52:36;;;;;;;1.00;0.90;;;;;;;27.84;59.52;99847.03;5096328;28;20089;-62
2023/08/16 07:55:06;;;;;;;1.02;0.80;;;;;;;28.00;59.00;99840.75;5097327;28;20067;-64
2023/08/16 07:57:35;;;;;;;0.80;0.70;;;;;;;28.09;58.23;99842.72;5096368;28;20044;-64
2023/08/16 08:00:06;;;;;;;1.08;0.85;;;;;;;28.05;57.72;99847.34;5097231;28;20043;-64
2023/08/16 08:02:40;;;;;;;1.98;1.35;;;;;;;28.06;57.73;99841.16;5095171;28;20052;-64
2023/08/16 08:05:26;;;;;;;1.95;0.93;;;;;;;28.22;57.23;99844.38;5095112;28;20048;-64
2023/08/16 08:07:55;;;;;;;0.98;0.90;;;;;;;28.35;56.60;99841.72;5097491;28;20055;-64
2023/08/16 08:10:24;;;;;;;0.60;0.60;;;;;;;28.46;56.39;99849.66;5097456;28;20047;-63
2023/08/16 08:12:53;;;;;;;1.15;1.00;;;;;;;28.61;56.29;99853.88;5097306;28;20044;-63
2023/08/16 08:15:22;;;;;;;1.52;1.00;;;;;;;28.80;56.32;99848.09;5094957;28;20101;-63
2023/08/16 08:17:51;;;;;;;1.05;0.88;;;;;;;28.88;55.78;99846.63;5096966;28;20040;-63
2023/08/16 08:20:20;;;;;;;0.45;0.45;;;;;;;29.03;55.47;99845.47;5096891;28;20118;-64
2023/08/16 08:22:50;;;;;;;0.80;0.80;;;;;;;29.15;55.48;99841.94;5096703;28;20032;-63
2023/08/16 08:25:19;;;;;;;0.88;0.75;;;;;;;29.26;55.21;99840.31;5096057;28;20490;-64
2023/08/16 08:27:49;;;;;;;2.20;1.55;;;;;;;29.24;54.95;99842.22;5097051;28;20075;-63
2023/08/16 08:30:18;;;;;;;0.80;0.80;;;;;;;29.34;54.76;99843.22;5096737;28;20039;-64
2023/08/16 08:32:48;;;;;;;1.27;0.73;;;;;;;29.40;54.46;99837.47;5096732;28;20071;-64
2023/08/16 08:35:19;;;;;;;1.17;1.08;;;;;;;29.27;54.57;99852.53;5094757;28;20043;-65
2023/08/16 08:37:48;;;;;;;1.05;0.80;;;;;;;29.16;54.61;99846.25;5093405;28;20486;-64
2023/08/16 08:40:19;;;;;;;2.47;1.67;;;;;;;29.29;55.10;99845.34;5093456;28;20093;-67
2023/08/16 08:42:51;;;;;;;4.25;2.30;;;;;;;29.44;54.60;99844.22;5076135;28;20045;-64
2023/08/16 08:45:20;;;;;;;2.28;1.40;;;;;;;29.64;54.50;99840.88;5078025;28;20036;-64
2023/08/16 08:47:49;;;;;;;1.23;0.82;;;;;;;29.72;53.82;99844.63;5096104;28;20067;-64
2023/08/16 08:50:18;;;;;;;1.77;1.60;;;;;;;29.75;52.94;99848.81;5095115;28;20441;-64
2023/08/16 08:52:51;;;;;;;1.23;1.02;;;;;;;29.76;53.40;99846.09;5096979;28;20036;-63
2023/08/16 08:55:22;;;;;;;0.77;0.77;;;;;;;29.66;52.93;99839.81;5095155;28;20097;-64
2023/08/16 08:57:52;;;;;;;1.85;1.38;;;;;;;29.66;53.23;99841.59;5095929;28;20074;-65
2023/08/16 09:00:22;;;;;;;0.55;0.55;;;;;;;29.83;53.09;99838.53;5094282;28;20429;-63
2023/08/16 09:02:51;;;;;;;2.83;1.10;;;;;;;30.07;52.56;99834.00;5094104;28;20469;-64
2023/08/16 09:05:22;;;;;;;1.77;1.15;;;;;;;30.22;51.77;99831.94;5096343;28;20040;-64
2023/08/16 09:07:53;;;;;;;0.68;0.68;;;;;;;30.39;51.64;99829.69;5096287;28;20486;-64
2023/08/16 09:10:23;;;;;;;1.17;1.08;;;;;;;30.63;51.94;99841.84;5095895;28;20044;-63
2023/08/16 09:12:52;;;;;;;1.00;0.90;;;;;;;30.78;51.12;99835.34;5095194;28;20490;-64
2023/08/16 09:15:21;;;;;;;2.88;1.02;;;;;;;30.67;49.83;99833.56;5111929;28;20044;-63
2023/08/16 09:17:50;;;;;;;0.80;0.80;;;;;;;30.50;50.20;99836.72;5116535;28;20036;-64
2023/08/16 09:20:21;;;;;;;0.88;0.85;;;;;;;30.34;49.89;99837.13;5116435;28;20461;-64
2023/08/16 09:22:50;;;;;;;1.38;1.08;;;;;;;30.30;49.60;99842.72;5116126;28;20040;-64
2023/08/16 09:25:19;;;;;;;0.77;0.77;;;;;;;30.21;49.44;99836.38;5108136;28;20043;-64
2023/08/16 09:27:52;;;;;;;0.77;0.70;;;;;;;30.11;48.93;99848.63;5095628;28;20075;-63
2023/08/16 09:30:23;;;;;;;0.50;0.50;;;;;;;30.10;49.38;99849.56;5095967;28;20075;-64
2023/08/16 09:32:53;;;;;;;0.75;0.75;;;;;;;30.16;48.96;99843.81;5094993;28;20040;-67
2023/08/16 09:35:29;;;;;;;1.42;1.02;;;;;;;30.26;49.72;99841.28;5075551;28;20052;-63
2023/08/16 09:37:58;;;;;;;1.02;0.90;;;;;;;30.24;49.11;99844.03;5075149;28;20041;-64
2023/08/16 09:40:26;;;;;;;;;;;;;;;30.13;49.34;99838.78;5089350;28;20036;-64
2023/08/16 09:43:01;;;;;;;1.35;1.20;;;;;;;30.12;50.61;99837.09;5095192;28;19924;-64
2023/08/16 09:45:33;;;;;;;0.50;0.50;;;;;;;30.12;51.50;99837.09;5095330;28;20044;-64
2023/08/16 09:48:04;;;;;;;0.60;0.60;;;;;;;30.04;51.07;99834.25;5094991;28;20052;-64
2023/08/16 09:50:36;;;;;;;1.13;0.95;;;;;;;29.90;51.25;99841.56;5095116;28;20044;-64
2023/08/16 09:53:21;;;;;;;0.73;0.73;;;;;;;29.80;50.57;99846.69;5090885;28;20056;-64
2023/08/16 09:56:05;;;;;;;1.40;0.90;;;;;;;29.80;50.79;99838.81;5079845;28;20444;-64
2023/08/16 09:58:39;;;;;;;0.60;0.60;;;;;;;29.78;51.71;99836.28;5095460;28;20062;-64
2023/08/16 10:01:08;;;;;;;0.73;0.73;;;;;;;29.82;52.66;99831.63;5092882;28;20032;-64
2023/08/16 10:03:42;;;;;;;2.00;0.98;;;;;;;30.12;52.29;99834.47;5093852;28;20044;-64
2023/08/16 10:06:28;;;;;;;1.00;0.93;;;;;;;30.49;51.49;99835.91;5094935;28;20105;-64
2023/08/16 10:09:04;;;;;;;0.98;0.82;;;;;;;30.70;49.15;99821.94;5093717;28;20047;-64
2023/08/16 10:11:35;;;;;;;2.47;1.25;;;;;;;30.76;48.43;99827.53;5095168;28;20375;-64
2023/08/16 10:14:07;;;;;;;0.73;0.60;;;;;;;30.69;47.34;99825.53;5094851;28;20046;-63
2023/08/16 10:16:38;;;;;;;1.75;1.02;;;;;;;30.62;47.39;99829.66;5094741;28;20055;-64
2023/08/16 10:19:12;;;;;;;2.38;1.45;;;;;;;30.50;48.08;99824.38;5094681;28;20071;-64
2023/08/16 10:21:47;;;;;;;2.47;0.90;;;;;;;30.46;48.36;99825.59;5095040;28;20047;-64
2023/08/16 10:24:16;;;;;;;0.60;0.60;;;;;;;30.47;47.99;99832.53;5093842;28;20406;-64
2023/08/16 10:27:05;;;;;;;1.23;0.98;;;;;;;30.75;46.40;99819.75;5094772;28;20040;-64
2023/08/16 10:29:40;;;;;;;0.60;0.60;;;;;;;31.06;45.12;99829.50;5094752;28;20067;-64
2023/08/16 10:32:16;;;;;;;11.50;1.48;;;;;;;31.35;45.24;99824.41;5094488;28;20119;-63
2023/08/16 10:34:45;;;;;;;0.73;0.73;;;;;;;31.56;43.89;99834.03;5094398;28;20048;-64
2023/08/16 10:37:14;;;;;;;0.80;0.80;;;;;;;31.69;44.19;99824.13;5093077;28;20056;-64
2023/08/16 10:39:50;;;;;;;3.47;1.70;;;;;;;31.87;44.82;99821.69;5079627;28;20071;-65
2023/08/16 10:42:26;;;;;;;1.27;1.17;;;;;;;31.63;45.62;99819.34;5093576;28;20036;-64
2023/08/16 10:44:56;;;;;;;4.95;2.72;;;;;;;31.50;47.04;99829.28;5114956;28;20104;-63
2023/08/16 10:47:29;;;;;;;1.08;0.98;;;;;;;31.62;47.98;99833.53;5114289;28;20533;-64
2023/08/16 10:50:01;;;;;;;1.23;1.13;;;;;;;31.76;46.84;99821.78;5094914;28;20036;-66
2023/08/16 10:52:30;;;;;;;1.45;0.93;;;;;;;31.70;46.63;99814.38;5081214;28;20049;-64
2023/08/16 10:55:00;;;;;;;1.52;1.17;;;;;;;31.78;46.23;99827.75;5074060;28;20475;-64
2023/08/16 10:57:29;;;;;;;1.48;1.05;;;;;;;31.91;46.04;99816.97;5073917;28;20067;-64
2023/08/16 11:00:10;;;;;;;1.27;1.08;;;;;;;31.98;44.84;99823.44;5073970;28;20394;-63
2023/08/16 11:02:42;;;;;;;0.93;0.88;;;;;;;32.08;45.27;99819.03;5073934;28;20464;-64
2023/08/16 11:05:18;;;;;;;1.15;0.90;;;;;;;31.98;45.50;99818.16;5081478;28;20119;-64
2023/08/16 11:07:47;;;;;;;0.90;0.90;;;;;;;32.05;44.72;99819.28;5093732;28;20072;-63
2023/08/16 11:10:16;;;;;;;1.60;1.23;;;;;;;32.02;43.71;99814.25;5093792;28;20044;-64
2023/08/16 11:12:46;;;;;;;0.80;0.80;;;;;;;32.13;43.02;99814.19;5093994;28;20040;-64
2023/08/16 11:15:19;;;;;;;1.08;0.90;;;;;;;32.23;43.17;99802.66;5093793;28;20494;-64
2023/08/16 11:17:48;;;;;;;1.88;1.25;;;;;;;32.39;43.71;99813.53;5093685;28;20052;-64
2023/08/16 11:20:35;;;;;;;0.88;0.82;;;;;;;32.44;43.47;99810.50;5092851;28;20151;-64
2023/08/16 11:23:05;;;;;;;0.60;0.60;;;;;;;32.49;42.93;99816.19;5092935;28;20032;-66
2023/08/16 11:25:35;;;;;;;2.05;1.10;;;;;;;32.49;43.05;99812.72;5093024;28;20040;-64
2023/08/16 11:28:04;;;;;;;0.85;0.80;;;;;;;32.69;43.53;99809.16;5091545;28;20028;-67
2023/08/16 11:30:35;;;;;;;0.68;0.68;;;;;;;32.75;42.84;99806.81;5088871;28;20032;-64
2023/08/16 11:33:05;;;;;;;2.75;1.15;;;;;;;32.74;42.79;99807.78;5091696;28;20130;-64
2023/08/16 11:35:36;;;;;;;0.60;0.60;;;;;;;32.68;42.19;99812.78;5093848;28;20051;-64
2023/08/16 11:38:05;;;;;;;6.72;1.67;;;;;;;32.73;42.23;99811.38;5106243;28;20067;-64
2023/08/16 11:40:33;;;;;;;5.63;1.52;;;;;;;32.74;42.34;99813.06;5090342;28;20059;-64
2023/08/16 11:43:04;;;;;;;0.60;0.60;;;;;;;32.73;41.89;99811.38;5093325;28;20060;-64
2023/08/16 11:45:36;;;;;;;0.77;0.77;;;;;;;32.68;42.21;99813.59;5094421;28;20055;-64
2023/08/16 11:48:06;;;;;;;1.33;0.80;;;;;;;32.70;41.91;99805.53;5092418;28;20060;-64